createdAt,value
2022-10-02T00:01:50.047Z,100.00
2022-10-02T00:05:00.050Z,100.00
2022-10-02T00:07:52.809Z,100.00
2022-10-02T00:11:08.003Z,100.00
2022-10-02T00:14:03.130Z,100.00
2022-10-02T00:16:56.901Z,100.00
2022-10-02T00:19:44.750Z,100.00
2022-10-02T00:23:10.672Z,100.00
2022-10-02T00:26:14.951Z,100.00
2022-10-02T00:29:35.181Z,100.00
2022-10-02T00:32:35.944Z,100.00
2022-10-02T00:35:55.031Z,100.00
2022-10-02T00:39:04.958Z,100.00
2022-10-02T00:42:47.215Z,100.00
2022-10-02T00:46:10.407Z,100.00
2022-10-02T00:49:17.110Z,100.00
2022-10-02T00:52:42.450Z,100.00
2022-10-02T00:55:39.637Z,100.00
2022-10-02T00:58:49.036Z,100.00
2022-10-02T01:01:41.559Z,100.00
2022-10-02T01:04:34.438Z,100.00
2022-10-02T01:07:22.570Z,100.00
2022-10-02T01:10:13.949Z,100.00
2022-10-02T01:13:01.931Z,99.97
2022-10-02T01:15:59.441Z,99.99
2022-10-02T01:18:50.569Z,99.97
2022-10-02T01:21:49.327Z,99.83
2022-10-02T01:24:57.582Z,99.78
2022-10-02T01:27:46.075Z,99.82
2022-10-02T01:30:38.848Z,99.87
2022-10-02T01:33:26.942Z,99.95
2022-10-02T01:36:16.445Z,99.83
2022-10-02T01:39:05.280Z,99.50
2022-10-02T01:41:55.649Z,99.65
2022-10-02T01:44:45.002Z,99.52
2022-10-02T01:47:53.973Z,99.36
2022-10-02T01:51:29.504Z,99.39
2022-10-02T01:54:56.555Z,99.13
2022-10-02T01:58:04.486Z,99.20
2022-10-02T02:01:23.373Z,99.12
2022-10-02T02:04:25.158Z,98.32
2022-10-02T02:08:01.385Z,98.82
2022-10-02T02:11:15.750Z,98.77
2022-10-02T02:14:20.700Z,98.81
2022-10-02T02:17:34.618Z,98.69
2022-10-02T02:20:36.482Z,98.75
2022-10-02T02:23:32.623Z,98.70
2022-10-02T02:26:20.771Z,98.78
2022-10-02T02:29:09.873Z,98.86
2022-10-02T02:32:00.371Z,98.83
2022-10-02T02:35:05.275Z,99.06
2022-10-02T02:37:58.687Z,98.81
2022-10-02T02:40:47.518Z,98.94
2022-10-02T02:44:13.164Z,99.60
2022-10-02T02:47:20.040Z,99.96
2022-10-02T02:50:16.508Z,99.75
2022-10-02T02:53:26.873Z,99.94
2022-10-02T02:56:19.515Z,99.91
2022-10-02T02:59:15.042Z,99.87
2022-10-02T03:02:03.033Z,99.89
2022-10-02T03:04:51.056Z,100.00
2022-10-02T03:07:38.942Z,99.59
2022-10-02T03:10:58.283Z,99.73
2022-10-02T03:15:02.543Z,99.57
2022-10-02T03:18:16.566Z,99.10
2022-10-02T03:21:43.151Z,98.98
2022-10-02T03:24:44.814Z,99.08
2022-10-02T03:27:37.463Z,98.41
2022-10-02T03:30:26.859Z,97.96
2022-10-02T03:33:17.421Z,97.46
2022-10-02T03:36:06.003Z,96.79
2022-10-02T03:39:24.753Z,96.44
2022-10-02T03:42:07.070Z,96.39
2022-10-02T03:44:55.091Z,95.90
2022-10-02T03:47:43.052Z,95.80
2022-10-02T03:50:35.562Z,96.30
2022-10-02T03:53:30.819Z,96.41
2022-10-02T03:56:44.701Z,96.64
2022-10-02T03:59:40.306Z,96.84
2022-10-02T04:03:14.607Z,97.05
2022-10-02T04:06:29.019Z,97.51
2022-10-02T04:09:37.516Z,97.26
2022-10-02T04:12:34.964Z,97.88
2022-10-02T04:15:53.758Z,97.81
2022-10-02T04:18:59.180Z,97.81
2022-10-02T04:22:00.942Z,97.55
2022-10-02T04:24:57.093Z,97.61
2022-10-02T04:28:17.638Z,97.61
2022-10-02T04:31:12.843Z,97.17
2022-10-02T04:34:03.504Z,97.16
2022-10-02T04:37:18.206Z,97.26
2022-10-02T04:40:37.351Z,97.28
2022-10-02T04:44:14.920Z,97.55
2022-10-02T04:47:30.006Z,97.78
2022-10-02T04:50:32.343Z,98.18
2022-10-02T04:53:51.350Z,97.95
2022-10-02T04:57:00.696Z,98.19
2022-10-02T05:00:03.927Z,98.13
2022-10-02T05:03:32.113Z,98.47
2022-10-02T05:07:07.799Z,98.35
2022-10-02T05:10:04.910Z,98.47
2022-10-02T05:13:17.009Z,98.84
2022-10-02T05:16:35.224Z,98.57
2022-10-02T05:19:29.344Z,98.39
2022-10-02T05:23:10.880Z,97.85
2022-10-02T05:26:36.441Z,97.67
2022-10-02T05:30:08.674Z,97.65
2022-10-02T05:33:15.060Z,97.51
2022-10-02T05:36:47.647Z,97.19
2022-10-02T05:39:48.375Z,96.39
2022-10-02T05:42:45.475Z,96.75
2022-10-02T05:45:50.303Z,96.18
2022-10-02T05:49:00.783Z,95.97
2022-10-02T05:52:04.426Z,96.05
2022-10-02T05:55:07.923Z,95.61
2022-10-02T05:58:21.216Z,95.27
2022-10-02T06:01:29.022Z,95.08
2022-10-02T06:04:36.241Z,95.34
2022-10-02T06:07:28.312Z,95.44
2022-10-02T06:10:29.524Z,95.34
2022-10-02T06:13:31.306Z,95.21
2022-10-02T06:16:42.284Z,95.43
2022-10-02T06:19:44.065Z,95.42
2022-10-02T06:23:26.939Z,95.18
2022-10-02T06:26:48.463Z,95.15
2022-10-02T06:30:06.740Z,95.09
2022-10-02T06:33:33.436Z,93.40
2022-10-02T06:37:03.155Z,92.39
2022-10-02T06:40:31.282Z,90.91
2022-10-02T06:43:37.774Z,90.18
2022-10-02T06:47:15.266Z,87.22
2022-10-02T06:50:44.579Z,85.46
2022-10-02T06:54:12.217Z,77.27
2022-10-02T06:57:20.893Z,76.16
2022-10-02T07:00:18.289Z,76.62
2022-10-02T07:03:49.588Z,76.47
2022-10-02T07:07:21.706Z,77.64
2022-10-02T07:10:43.456Z,77.85
2022-10-02T07:13:59.537Z,77.35
2022-10-02T07:17:14.634Z,76.72
2022-10-02T07:20:36.452Z,76.70
2022-10-02T07:24:02.620Z,76.79
2022-10-02T07:27:12.439Z,75.57
2022-10-02T07:30:16.916Z,68.16
2022-10-02T07:33:45.657Z,68.40
2022-10-02T07:36:43.217Z,69.01
2022-10-02T07:40:06.567Z,67.73
2022-10-02T07:43:41.613Z,62.68
2022-10-02T07:46:40.181Z,58.73
2022-10-02T07:50:05.700Z,61.04
2022-10-02T07:53:18.950Z,64.29
2022-10-02T07:56:20.230Z,65.65
2022-10-02T07:59:16.777Z,64.75
2022-10-02T08:02:25.179Z,64.82
2022-10-02T08:05:28.737Z,65.64
2022-10-02T08:08:47.924Z,65.91
2022-10-02T08:11:54.980Z,63.15
2022-10-02T08:14:47.016Z,63.59
2022-10-02T08:17:51.285Z,64.81
2022-10-02T08:20:44.154Z,67.32
2022-10-02T08:23:55.622Z,69.16
2022-10-02T08:27:06.293Z,69.50
2022-10-02T08:30:06.680Z,68.50
2022-10-02T08:32:55.202Z,67.99
2022-10-02T08:35:59.292Z,68.12
2022-10-02T08:39:23.456Z,69.09
2022-10-02T08:42:55.130Z,70.71
2022-10-02T08:46:10.963Z,72.20
2022-10-02T08:49:32.084Z,73.44
2022-10-02T08:53:13.872Z,70.68
2022-10-02T08:56:20.297Z,66.59
2022-10-02T08:59:45.805Z,63.01
2022-10-02T09:03:26.403Z,57.93
2022-10-02T09:06:51.551Z,51.33
2022-10-02T09:10:22.879Z,45.62
2022-10-02T09:13:34.243Z,42.22
2022-10-02T09:17:02.721Z,40.57
2022-10-02T09:20:34.131Z,41.91
2022-10-02T09:23:52.950Z,43.87
2022-10-02T09:27:08.365Z,42.51
2022-10-02T09:30:24.291Z,42.25
2022-10-02T09:33:39.539Z,44.40
2022-10-02T09:37:17.397Z,46.26
2022-10-02T09:40:27.054Z,50.16
2022-10-02T09:43:39.827Z,53.16
2022-10-02T09:47:21.773Z,55.96
2022-10-02T09:50:35.628Z,57.57
2022-10-02T09:53:57.084Z,58.24
2022-10-02T09:57:04.237Z,56.73
2022-10-02T10:00:18.642Z,51.28
2022-10-02T10:04:08.708Z,47.03
2022-10-02T10:07:18.900Z,45.46
2022-10-02T10:10:34.130Z,45.76
2022-10-02T10:13:27.510Z,46.64
2022-10-02T10:16:46.388Z,47.19
2022-10-02T10:20:03.761Z,45.96
2022-10-02T10:23:16.845Z,44.80
2022-10-02T10:26:16.448Z,43.92
2022-10-02T10:29:38.300Z,43.22
2022-10-02T10:33:03.234Z,40.68
2022-10-02T10:36:51.313Z,41.08
2022-10-02T10:39:56.152Z,43.51
2022-10-02T10:43:27.190Z,46.05
2022-10-02T10:46:52.124Z,49.12
2022-10-02T10:50:17.526Z,51.84
2022-10-02T10:53:29.931Z,54.24
2022-10-02T10:56:50.634Z,56.05
2022-10-02T11:00:10.334Z,57.40
2022-10-02T11:03:28.200Z,59.69
2022-10-02T11:06:31.160Z,61.33
2022-10-02T11:10:07.937Z,63.65
2022-10-02T11:13:13.743Z,65.64
2022-10-02T11:16:13.405Z,66.82
2022-10-02T11:19:28.215Z,67.66
2022-10-02T11:22:58.179Z,69.01
2022-10-02T11:26:01.681Z,69.15
2022-10-02T11:29:41.792Z,69.10
2022-10-02T11:33:04.035Z,69.82
2022-10-02T11:36:22.935Z,70.50
2022-10-02T11:39:44.693Z,70.53
2022-10-02T11:42:56.332Z,70.66
2022-10-02T11:46:06.560Z,71.04
2022-10-02T11:49:26.491Z,70.79
2022-10-02T11:52:27.354Z,71.01
2022-10-02T11:55:37.972Z,70.60
2022-10-02T11:59:10.341Z,71.26
2022-10-02T12:02:25.758Z,71.65
2022-10-02T12:05:45.034Z,72.25
2022-10-02T12:08:57.018Z,71.47
2022-10-02T12:12:14.951Z,70.79
2022-10-02T12:15:15.428Z,69.27
2022-10-02T12:18:45.383Z,67.87
2022-10-02T12:22:18.894Z,66.64
2022-10-02T12:25:38.268Z,66.03
2022-10-02T12:28:46.163Z,64.99
2022-10-02T12:31:59.705Z,64.36
2022-10-02T12:35:18.035Z,64.43
2022-10-02T12:38:45.030Z,63.77
2022-10-02T12:42:24.194Z,63.16
2022-10-02T12:45:58.994Z,63.71
2022-10-02T12:49:27.952Z,63.83
2022-10-02T12:53:10.708Z,65.35
2022-10-02T12:57:07.876Z,67.02
2022-10-02T13:00:07.424Z,68.90
2022-10-02T13:03:47.173Z,69.96
2022-10-02T13:07:26.333Z,71.56
2022-10-02T13:10:58.820Z,72.69
2022-10-02T13:14:28.021Z,73.11
2022-10-02T13:18:23.289Z,73.39
2022-10-02T13:21:45.962Z,74.91
2022-10-02T13:25:13.919Z,74.95
2022-10-02T13:28:29.546Z,76.53
2022-10-02T13:31:55.727Z,78.23
2022-10-02T13:35:16.802Z,79.92
2022-10-02T13:38:31.816Z,82.12
2022-10-02T13:41:45.286Z,82.88
2022-10-02T13:45:14.480Z,84.65
2022-10-02T13:48:39.218Z,85.33
2022-10-02T13:51:51.537Z,86.61
2022-10-02T13:55:13.320Z,87.49
2022-10-02T13:58:26.241Z,85.93
2022-10-02T14:01:43.672Z,85.88
2022-10-02T14:04:50.088Z,85.42
2022-10-02T14:08:01.730Z,83.37
2022-10-02T14:11:25.059Z,81.65
2022-10-02T14:15:24.546Z,80.74
2022-10-02T14:18:35.497Z,80.64
2022-10-02T14:21:48.352Z,81.58
2022-10-02T14:25:11.281Z,82.60
2022-10-02T14:28:40.320Z,83.02
2022-10-02T14:32:03.911Z,83.19
2022-10-02T14:35:09.656Z,83.47
2022-10-02T14:38:46.431Z,84.27
2022-10-02T14:42:04.515Z,84.59
2022-10-02T14:45:21.967Z,85.55
2022-10-02T14:48:38.828Z,86.01
2022-10-02T14:52:17.899Z,86.09
2022-10-02T14:55:40.108Z,85.53
2022-10-02T14:58:45.600Z,85.63
2022-10-02T15:01:54.201Z,85.33
2022-10-02T15:05:33.930Z,84.18
2022-10-02T15:08:39.996Z,83.73
2022-10-02T15:11:37.076Z,83.53
2022-10-02T15:14:52.801Z,83.70
2022-10-02T15:18:21.247Z,82.31
2022-10-02T15:21:48.988Z,82.00
2022-10-02T15:24:55.668Z,82.13
2022-10-02T15:28:24.546Z,82.18
2022-10-02T15:31:26.564Z,83.36
2022-10-02T15:34:52.875Z,83.71
2022-10-02T15:37:42.488Z,83.64
2022-10-02T15:42:01.171Z,83.90
2022-10-02T15:45:17.452Z,84.70
2022-10-02T15:48:30.522Z,85.37
2022-10-02T15:51:58.149Z,85.41
2022-10-02T15:54:54.845Z,86.27
2022-10-02T15:58:04.625Z,86.79
2022-10-02T16:01:01.179Z,87.44
2022-10-02T16:04:21.626Z,88.01
2022-10-02T16:08:10.661Z,88.89
2022-10-02T16:11:39.982Z,90.23
2022-10-02T16:14:40.167Z,90.70
2022-10-02T16:17:58.964Z,91.37
2022-10-02T16:21:13.024Z,91.86
2022-10-02T16:24:40.192Z,93.08
2022-10-02T16:28:00.392Z,93.83
2022-10-02T16:30:52.876Z,95.17
2022-10-02T16:33:50.158Z,95.05
2022-10-02T16:36:52.373Z,96.02
2022-10-02T16:40:21.494Z,96.83
2022-10-02T16:43:45.628Z,96.83
2022-10-02T16:47:10.563Z,96.56
2022-10-02T16:50:24.991Z,96.84
2022-10-02T16:53:27.077Z,96.89
2022-10-02T16:56:42.081Z,97.53
2022-10-02T17:00:16.849Z,96.91
2022-10-02T17:03:31.908Z,97.17
2022-10-02T17:06:50.000Z,96.69
2022-10-02T17:09:48.379Z,96.07
2022-10-02T17:12:52.899Z,95.38
2022-10-02T17:15:49.949Z,94.84
2022-10-02T17:18:59.220Z,94.48
2022-10-02T17:22:09.235Z,93.75
2022-10-02T17:25:25.003Z,93.84
2022-10-02T17:28:31.454Z,93.69
2022-10-02T17:31:35.984Z,93.95
2022-10-02T17:34:46.911Z,94.64
2022-10-02T17:38:25.262Z,95.30
2022-10-02T17:41:44.119Z,96.56
2022-10-02T17:45:08.415Z,97.45
2022-10-02T17:48:24.381Z,99.19
2022-10-02T17:51:54.611Z,99.59
2022-10-02T17:55:46.397Z,100.00
2022-10-02T17:59:04.245Z,100.00
2022-10-02T18:01:59.358Z,100.00
2022-10-02T18:05:13.319Z,100.00
2022-10-02T18:08:12.901Z,100.00
2022-10-02T18:11:30.264Z,100.00
2022-10-02T18:14:39.515Z,100.00
2022-10-02T18:18:02.729Z,100.00
2022-10-02T18:21:35.213Z,100.00
2022-10-02T18:24:52.189Z,100.00
2022-10-02T18:28:02.233Z,100.00
2022-10-02T18:31:28.778Z,100.00
2022-10-02T18:34:41.439Z,100.00
2022-10-02T18:37:57.633Z,100.00
2022-10-02T18:41:12.716Z,100.00
2022-10-02T18:44:26.515Z,100.00
2022-10-02T18:47:49.751Z,100.00
2022-10-02T18:51:18.982Z,100.00
2022-10-02T18:54:25.006Z,100.00
2022-10-02T18:57:34.037Z,100.00
2022-10-02T19:00:26.457Z,100.00
2022-10-02T19:03:50.886Z,100.00
2022-10-02T19:07:24.972Z,100.00
2022-10-02T19:10:29.793Z,100.00
2022-10-02T19:13:30.106Z,100.00
2022-10-02T19:16:25.930Z,100.00
2022-10-02T19:19:48.435Z,100.00
2022-10-02T19:22:38.682Z,100.00
2022-10-02T19:25:29.153Z,100.00
2022-10-02T19:28:26.120Z,100.00
2022-10-02T19:31:22.916Z,100.00
2022-10-02T19:34:25.914Z,100.00
2022-10-02T19:37:18.631Z,100.00
2022-10-02T19:40:17.116Z,100.00
2022-10-02T19:43:56.219Z,100.00
2022-10-02T19:46:51.494Z,100.00
2022-10-02T19:49:43.589Z,100.00
2022-10-02T19:52:57.948Z,100.00
2022-10-02T19:56:04.158Z,100.00
2022-10-02T19:59:09.690Z,100.00
2022-10-02T20:02:03.610Z,100.00
2022-10-02T20:05:11.996Z,100.00
2022-10-02T20:08:07.317Z,100.00
2022-10-02T20:11:21.785Z,100.00
2022-10-02T20:14:39.912Z,100.00
2022-10-02T20:17:31.492Z,100.00
2022-10-02T20:20:20.873Z,100.00
2022-10-02T20:23:17.630Z,100.00
2022-10-02T20:26:12.338Z,100.00
2022-10-02T20:29:12.687Z,100.00
2022-10-02T20:32:17.143Z,100.00
2022-10-02T20:35:29.475Z,100.00
2022-10-02T20:39:00.366Z,100.00
2022-10-02T20:42:14.212Z,100.00
2022-10-02T20:45:02.905Z,100.00
2022-10-02T20:48:11.744Z,100.00
2022-10-02T20:51:13.122Z,100.00
2022-10-02T20:54:50.177Z,100.00
2022-10-02T20:58:20.975Z,100.00
2022-10-02T21:01:20.447Z,100.00
2022-10-02T21:05:05.268Z,100.00
2022-10-02T21:08:10.479Z,100.00
2022-10-02T21:11:59.367Z,100.00
2022-10-02T21:14:55.754Z,100.00
2022-10-02T21:19:00.188Z,100.00
2022-10-02T21:22:52.711Z,100.00
2022-10-02T21:26:46.161Z,100.00
2022-10-02T21:30:19.014Z,100.00
2022-10-02T21:33:37.393Z,100.00
2022-10-02T21:36:47.263Z,100.00
2022-10-02T21:40:09.455Z,100.00
2022-10-02T21:43:40.315Z,100.00
2022-10-02T21:47:28.477Z,100.00
2022-10-02T21:50:59.518Z,100.00
2022-10-02T21:54:34.398Z,100.00
2022-10-02T21:57:31.508Z,100.00
2022-10-02T22:00:28.197Z,100.00
2022-10-02T22:03:49.213Z,100.00
2022-10-02T22:06:56.951Z,100.00
2022-10-02T22:10:14.181Z,100.00
2022-10-02T22:13:20.314Z,100.00
2022-10-02T22:16:17.433Z,100.00
2022-10-02T22:19:42.364Z,100.00
2022-10-02T22:23:03.867Z,100.00
2022-10-02T22:26:58.040Z,100.00
2022-10-02T22:29:51.863Z,100.00
2022-10-02T22:33:16.433Z,100.00
2022-10-02T22:36:32.231Z,100.00
2022-10-02T22:39:31.789Z,100.00
2022-10-02T22:42:46.478Z,100.00
2022-10-02T22:46:27.654Z,100.00
2022-10-02T22:49:37.930Z,100.00
2022-10-02T22:52:33.875Z,100.00
2022-10-02T22:55:36.849Z,100.00
2022-10-02T22:58:47.948Z,100.00
2022-10-02T23:02:44.132Z,100.00
2022-10-02T23:05:57.502Z,100.00
2022-10-02T23:09:03.887Z,100.00
2022-10-02T23:12:24.294Z,100.00
2022-10-02T23:16:00.600Z,100.00
2022-10-02T23:19:13.179Z,100.00
2022-10-02T23:22:08.480Z,100.00
2022-10-02T23:25:19.337Z,100.00
2022-10-02T23:28:18.765Z,100.00
2022-10-02T23:31:32.536Z,100.00
2022-10-02T23:34:57.545Z,100.00
2022-10-02T23:38:19.683Z,100.00
2022-10-02T23:41:46.671Z,100.00
2022-10-02T23:45:00.877Z,100.00
2022-10-02T23:48:03.520Z,100.00
2022-10-02T23:51:06.999Z,100.00
2022-10-02T23:54:36.130Z,100.00
2022-10-02T23:57:39.498Z,100.00
